Marion Island, South Africa
Current Conditions -  °F | °C
As of 1:00 PM on Friday 24 Oct 2014 (Local Time) from FAEL Reporting Station
Broken Clouds Broken Clouds  
Wind Chill: 72°   Ceiling: 4800
Heat Index: 72°   Visibility: 6mi
Dew Point: 63°   Wind: 13mph
Humidity: 73%   Direction: 200°SSW
Pressure: 30.03"   Gusts: NA
Location:  46.9°S, 37.75°E
Report Text: FAEL 241100Z 20011KT 9999 FEW009 SCT032 BKN048 22/17 Q1017
Loading
Personal Weather Stations






























Interactive Weather Map
Tropical Storm Tracking
New forecast layout! Learn more

10-Day Weather Forecast

Advertisements
Track Severe Weather on mobile